sensor_id;sensor_type;location;lat;lon;timestamp;P1;durP1;ratioP1;P2;durP2;ratioP2
3831;SDS011;12460;42.662;23.288;2023-12-04T00:03:17;6.77;;;5.30;;
3831;SDS011;12460;42.662;23.288;2023-12-04T00:18:18;6.13;;;4.87;;
3831;SDS011;12460;42.662;23.288;2023-12-04T00:33:20;7.07;;;5.80;;
3831;SDS011;12460;42.662;23.288;2023-12-04T00:48:22;5.13;;;4.63;;
3831;SDS011;12460;42.662;23.288;2023-12-04T01:03:24;5.83;;;4.87;;
3831;SDS011;12460;42.662;23.288;2023-12-04T01:18:27;10.00;;;6.60;;
3831;SDS011;12460;42.662;23.288;2023-12-04T01:33:30;7.67;;;6.10;;
3831;SDS011;12460;42.662;23.288;2023-12-04T01:48:32;6.83;;;5.30;;
3831;SDS011;12460;42.662;23.288;2023-12-04T02:03:34;6.00;;;4.90;;
3831;SDS011;12460;42.662;23.288;2023-12-04T02:18:37;6.73;;;5.70;;
3831;SDS011;12460;42.662;23.288;2023-12-04T02:33:39;7.90;;;5.60;;
3831;SDS011;12460;42.662;23.288;2023-12-04T02:48:43;6.67;;;5.33;;
3831;SDS011;12460;42.662;23.288;2023-12-04T03:03:45;5.97;;;5.37;;
3831;SDS011;12460;42.662;23.288;2023-12-04T03:18:47;5.97;;;4.93;;
3831;SDS011;12460;42.662;23.288;2023-12-04T03:33:49;5.83;;;5.23;;
3831;SDS011;12460;42.662;23.288;2023-12-04T03:48:51;6.17;;;5.47;;
3831;SDS011;12460;42.662;23.288;2023-12-04T04:03:53;7.90;;;5.87;;
3831;SDS011;12460;42.662;23.288;2023-12-04T04:18:55;7.50;;;5.57;;
3831;SDS011;12460;42.662;23.288;2023-12-04T04:33:56;6.57;;;5.43;;
3831;SDS011;12460;42.662;23.288;2023-12-04T04:48:58;5.87;;;5.07;;
3831;SDS011;12460;42.662;23.288;2023-12-04T05:04:00;7.67;;;5.73;;
3831;SDS011;12460;42.662;23.288;2023-12-04T05:19:03;10.50;;;7.00;;
3831;SDS011;12460;42.662;23.288;2023-12-04T05:34:05;8.30;;;6.50;;
3831;SDS011;12460;42.662;23.288;2023-12-04T05:49:07;9.10;;;6.80;;
3831;SDS011;12460;42.662;23.288;2023-12-04T06:04:09;10.70;;;7.87;;
3831;SDS011;12460;42.662;23.288;2023-12-04T06:19:11;9.47;;;7.03;;
3831;SDS011;12460;42.662;23.288;2023-12-04T06:34:13;8.10;;;6.40;;
3831;SDS011;12460;42.662;23.288;2023-12-04T06:49:16;11.43;;;5.90;;
3831;SDS011;12460;42.662;23.288;2023-12-04T07:04:19;8.40;;;6.80;;
3831;SDS011;12460;42.662;23.288;2023-12-04T07:19:23;7.37;;;5.40;;
3831;SDS011;12460;42.662;23.288;2023-12-04T07:34:25;8.00;;;6.23;;
3831;SDS011;12460;42.662;23.288;2023-12-04T07:49:28;6.50;;;5.80;;
3831;SDS011;12460;42.662;23.288;2023-12-04T08:04:29;7.93;;;6.70;;
3831;SDS011;12460;42.662;23.288;2023-12-04T08:19:31;9.80;;;6.90;;
3831;SDS011;12460;42.662;23.288;2023-12-04T08:34:33;7.50;;;5.80;;
3831;SDS011;12460;42.662;23.288;2023-12-04T08:49:36;4.90;;;4.43;;
3831;SDS011;12460;42.662;23.288;2023-12-04T09:04:43;6.70;;;5.07;;
3831;SDS011;12460;42.662;23.288;2023-12-04T09:19:45;6.03;;;4.40;;
3831;SDS011;12460;42.662;23.288;2023-12-04T09:34:47;5.83;;;5.30;;
3831;SDS011;12460;42.662;23.288;2023-12-04T09:49:50;5.90;;;5.30;;
3831;SDS011;12460;42.662;23.288;2023-12-04T10:04:54;6.67;;;5.80;;
3831;SDS011;12460;42.662;23.288;2023-12-04T10:20:03;6.17;;;5.20;;
3831;SDS011;12460;42.662;23.288;2023-12-04T10:35:19;6.23;;;5.60;;
3831;SDS011;12460;42.662;23.288;2023-12-04T10:50:21;7.40;;;6.70;;
3831;SDS011;12460;42.662;23.288;2023-12-04T11:05:24;6.03;;;5.43;;
3831;SDS011;12460;42.662;23.288;2023-12-04T11:20:31;6.40;;;5.77;;
3831;SDS011;12460;42.662;23.288;2023-12-04T11:35:37;6.30;;;5.70;;
3831;SDS011;12460;42.662;23.288;2023-12-04T11:50:40;7.70;;;6.40;;
3831;SDS011;12460;42.662;23.288;2023-12-04T12:05:44;5.77;;;5.27;;
3831;SDS011;12460;42.662;23.288;2023-12-04T12:20:46;8.53;;;5.60;;
3831;SDS011;12460;42.662;23.288;2023-12-04T12:35:48;7.17;;;6.07;;
3831;SDS011;12460;42.662;23.288;2023-12-04T12:50:54;8.57;;;6.57;;
3831;SDS011;12460;42.662;23.288;2023-12-04T13:05:56;7.33;;;6.50;;
3831;SDS011;12460;42.662;23.288;2023-12-04T13:20:59;8.20;;;6.50;;
3831;SDS011;12460;42.662;23.288;2023-12-04T13:36:01;11.47;;;7.90;;
3831;SDS011;12460;42.662;23.288;2023-12-04T13:51:03;10.73;;;8.23;;
3831;SDS011;12460;42.662;23.288;2023-12-04T14:06:05;10.40;;;9.17;;
3831;SDS011;12460;42.662;23.288;2023-12-04T14:21:08;11.60;;;9.10;;
3831;SDS011;12460;42.662;23.288;2023-12-04T14:36:10;13.43;;;9.77;;
3831;SDS011;12460;42.662;23.288;2023-12-04T14:51:15;26.77;;;14.70;;
3831;SDS011;12460;42.662;23.288;2023-12-04T15:06:17;24.17;;;14.60;;
3831;SDS011;12460;42.662;23.288;2023-12-04T15:21:45;23.63;;;14.90;;
3831;SDS011;12460;42.662;23.288;2023-12-04T15:36:47;28.23;;;17.27;;
3831;SDS011;12460;42.662;23.288;2023-12-04T15:51:49;28.60;;;17.93;;
3831;SDS011;12460;42.662;23.288;2023-12-04T16:06:51;29.13;;;17.33;;
3831;SDS011;12460;42.662;23.288;2023-12-04T16:21:53;23.33;;;15.67;;
3831;SDS011;12460;42.662;23.288;2023-12-04T16:36:55;18.20;;;12.90;;
3831;SDS011;12460;42.662;23.288;2023-12-04T16:51:57;17.87;;;11.17;;
3831;SDS011;12460;42.662;23.288;2023-12-04T17:06:59;26.20;;;15.97;;
3831;SDS011;12460;42.662;23.288;2023-12-04T17:22:02;29.43;;;17.47;;
3831;SDS011;12460;42.662;23.288;2023-12-04T17:37:04;21.60;;;15.27;;
3831;SDS011;12460;42.662;23.288;2023-12-04T17:52:06;25.10;;;18.27;;
3831;SDS011;12460;42.662;23.288;2023-12-04T18:07:08;33.67;;;21.30;;
3831;SDS011;12460;42.662;23.288;2023-12-04T18:22:10;40.70;;;24.30;;
3831;SDS011;12460;42.662;23.288;2023-12-04T18:37:18;32.97;;;21.30;;
3831;SDS011;12460;42.662;23.288;2023-12-04T18:52:24;40.07;;;24.07;;
3831;SDS011;12460;42.662;23.288;2023-12-04T19:07:26;27.63;;;16.87;;
3831;SDS011;12460;42.662;23.288;2023-12-04T19:22:28;24.70;;;15.70;;
3831;SDS011;12460;42.662;23.288;2023-12-04T19:37:30;41.40;;;26.40;;
3831;SDS011;12460;42.662;23.288;2023-12-04T19:52:32;38.90;;;24.80;;
3831;SDS011;12460;42.662;23.288;2023-12-04T20:07:34;40.73;;;26.40;;
3831;SDS011;12460;42.662;23.288;2023-12-04T20:22:36;42.33;;;28.50;;
3831;SDS011;12460;42.662;23.288;2023-12-04T20:37:38;39.63;;;24.03;;
3831;SDS011;12460;42.662;23.288;2023-12-04T20:52:42;21.30;;;14.37;;
3831;SDS011;12460;42.662;23.288;2023-12-04T21:07:44;14.17;;;10.40;;
3831;SDS011;12460;42.662;23.288;2023-12-04T21:22:46;18.43;;;9.93;;
3831;SDS011;12460;42.662;23.288;2023-12-04T21:37:47;17.50;;;11.00;;
3831;SDS011;12460;42.662;23.288;2023-12-04T21:52:49;17.07;;;10.00;;
3831;SDS011;12460;42.662;23.288;2023-12-04T22:07:51;14.73;;;8.90;;
3831;SDS011;12460;42.662;23.288;2023-12-04T22:22:53;13.10;;;8.83;;
3831;SDS011;12460;42.662;23.288;2023-12-04T22:37:55;14.70;;;9.30;;
3831;SDS011;12460;42.662;23.288;2023-12-04T22:53:01;13.07;;;8.40;;
3831;SDS011;12460;42.662;23.288;2023-12-04T23:08:09;15.00;;;9.10;;
3831;SDS011;12460;42.662;23.288;2023-12-04T23:23:11;16.40;;;10.30;;
3831;SDS011;12460;42.662;23.288;2023-12-04T23:38:13;15.90;;;10.43;;
3831;SDS011;12460;42.662;23.288;2023-12-04T23:53:15;18.00;;;11.43;;
